OJAQ/AQJ METAR and TAF weather

Enter ICAO airport designator
Station Type Date Time Source
OJAQ METAR 2020/01/20 10:00 UTC NOAA

OJAQ 201000Z 00000KT CAVOK 20/07 Q1025 NOSIG


Station Type Date Time Source
OJAQ Decoded METAR 2020/01/20 10:00 UTC NOAA

Aqaba Airport, Jordan (OJAQ) 29-38N 035-01E 51M
Jan 20, 2020 - 05:00 AM EST / 2020.01.20 1000 UTC
Wind: Calm:0
Visibility: greater than 7 mile(s):0
Temperature: 68 F (20 C)
Dew Point: 44 F (7 C)
Relative Humidity: 42%
Pressure (altimeter): 30.27 in. Hg (1025 hPa)
ob: OJAQ 201000Z 00000KT CAVOK 20/07 Q1025 NOSIG
cycle: 10

Station Type Date Time Source
OJAQ TAF 2020/01/20 06:14 UTC NOAA

TAF OJAQ 200500Z 2006/2112 36012KT 7000 FEW030
TEMPO 2103/2106 5000 -RA SCT025 SCT030

Example: see airport list